Time;durP1;ratioP1;P1;durP2;ratioP2;P2;SDS_P1;SDS_P2;PMS_P1;PMS_P2;Temp;Humidity;BMP_temperature;BMP_pressure;BME280_temperature;BME280_humidity;BME280_pressure;Samples;Min_cycle;Max_cycle;Signal;HPM_P1;HPM_P2
2021/12/11 00:01:49;;;;;;;;;;;5.50;99.90;;;;;;5028803;28;19977;-72
2021/12/11 00:04:16;;;;;;;;;;;5.50;99.90;;;;;;5028357;28;19941;-73
2021/12/11 00:06:44;;;;;;;;;;;5.50;99.90;;;;;;5020153;28;19913;-72
2021/12/11 00:09:15;;;;;;;;;;;5.50;99.90;;;;;;5008434;28;19916;-73
2021/12/11 00:11:42;;;;;;;;;;;5.60;99.90;;;;;;5008412;28;19921;-72
2021/12/11 00:14:09;;;;;;;;;;;5.50;99.90;;;;;;5007788;28;19922;-73
2021/12/11 00:16:36;;;;;;;;;;;5.60;99.90;;;;;;5014033;28;20221;-73
2021/12/11 00:19:05;;;;;;;;;;;5.60;99.90;;;;;;5012718;28;19914;-73
2021/12/11 00:21:31;;;;;;;;;;;5.50;99.90;;;;;;5009146;28;20008;-72
2021/12/11 00:23:58;;;;;;;;;;;5.40;99.90;;;;;;5007199;28;20008;-71
2021/12/11 00:26:27;;;;;;;;;;;5.40;99.90;;;;;;5008228;28;19910;-71
2021/12/11 00:28:52;;;;;;;;;;;5.50;99.90;;;;;;5006365;28;19923;-72
2021/12/11 00:31:19;;;;;;;;;;;5.50;99.90;;;;;;5007309;28;19910;-73
2021/12/11 00:33:44;;;;;;;;;;;5.50;99.90;;;;;;5007713;28;19959;-71
2021/12/11 00:36:11;;;;;;;;;;;5.40;99.90;;;;;;5010249;28;19917;-71
2021/12/11 00:38:37;;;;;;;;;;;5.20;99.90;;;;;;5019278;28;20009;-71
2021/12/11 00:41:07;;;;;;;;;;;5.20;99.90;;;;;;5010818;28;19996;-72
2021/12/11 00:43:35;;;;;;;;;;;5.30;99.90;;;;;;5016626;28;19967;-72
2021/12/11 00:46:03;;;;;;;;;;;5.30;99.90;;;;;;5011196;28;19910;-71
2021/12/11 00:48:28;;;;;;;;;;;5.40;99.90;;;;;;5011174;28;19931;-72
2021/12/11 00:50:56;;;;;;;;;;;5.40;99.90;;;;;;5011047;28;19910;-71
2021/12/11 00:53:28;;;;;;;;;;;5.40;99.90;;;;;;5010811;28;19991;-71
2021/12/11 00:55:55;;;;;;;;;;;5.40;99.90;;;;;;5010694;28;19914;-70
2021/12/11 00:58:23;;;;;;;;;;;5.40;99.90;;;;;;5010882;28;19909;-71
2021/12/11 01:00:52;;;;;;;;;;;5.40;99.90;;;;;;5009863;28;19948;-71
2021/12/11 01:03:19;;;;;;;;;;;5.50;99.90;;;;;;5015894;28;19984;-71
2021/12/11 01:05:46;;;;;;;;;;;5.60;99.90;;;;;;5010500;28;20027;-70
2021/12/11 01:08:13;;;;;;;;;;;5.60;99.90;;;;;;5029842;28;20004;-71
2021/12/11 01:10:39;;;;;;;;;;;5.60;99.90;;;;;;5030463;28;19909;-71
2021/12/11 01:13:05;;;;;;;;;;;5.60;99.90;;;;;;5019578;28;20336;-71
2021/12/11 01:15:40;;;;;;;;;;;5.60;99.90;;;;;;5010737;28;19920;-71
2021/12/11 01:21:01;;;;;;;;;;;5.50;99.90;;;;;;5010978;28;19909;-71
2021/12/11 01:26:04;;;;;;;;;;;5.50;99.90;;;;;;5010482;28;19909;-71
2021/12/11 01:28:30;;;;;;;;;;;5.60;99.90;;;;;;5009573;28;20329;-70
2021/12/11 01:30:57;;;;;;;;;;;5.60;99.90;;;;;;5022574;28;19909;-71
2021/12/11 01:33:22;;;;;;;;;;;5.50;99.90;;;;;;5011737;28;19913;-70
2021/12/11 01:35:48;;;;;;;;;;;5.50;99.90;;;;;;5010275;28;19940;-71
2021/12/11 01:38:15;;;;;;;;;;;5.50;99.90;;;;;;5011110;28;19967;-70
2021/12/11 01:40:43;;;;;;;;;;;5.50;99.90;;;;;;5010664;28;20396;-71
2021/12/11 01:43:09;;;;;;;;;;;5.50;99.90;;;;;;5010593;28;19989;-71
2021/12/11 01:45:35;;;;;;;;;;;5.60;99.90;;;;;;5010172;28;20385;-71
2021/12/11 01:48:01;;;;;;;;;;;5.60;99.90;;;;;;5024332;28;19979;-71
2021/12/11 01:50:29;;;;;;;;;;;5.70;99.90;;;;;;5009969;28;20366;-71
2021/12/11 01:53:01;;;;;;;;;;;5.60;99.90;;;;;;5009960;28;19921;-71
2021/12/11 01:55:35;;;;;;;;;;;5.70;99.90;;;;;;5008667;28;19953;-71
2021/12/11 01:58:01;;;;;;;;;;;5.70;99.90;;;;;;5009715;28;19976;-71
2021/12/11 02:00:29;;;;;;;;;;;5.70;99.90;;;;;;5023965;28;19913;-72
2021/12/11 02:02:56;;;;;;;;;;;5.70;99.90;;;;;;5028991;28;20365;-71
2021/12/11 02:05:24;;;;;;;;;;;5.50;99.90;;;;;;5029900;28;19925;-72
2021/12/11 02:07:52;;;;;;;;;;;5.50;99.90;;;;;;5012698;28;19949;-71
2021/12/11 02:10:26;;;;;;;;;;;5.70;99.90;;;;;;5009415;28;20016;-71
2021/12/11 02:12:52;;;;;;;;;;;5.70;99.90;;;;;;5028319;28;19971;-71
2021/12/11 02:15:20;;;;;;;;;;;5.70;99.90;;;;;;5029662;28;19910;-70
2021/12/11 02:17:52;;;;;;;;;;;5.70;99.90;;;;;;5041843;28;19909;-70
2021/12/11 02:20:27;;;;;;;;;;;5.70;99.90;;;;;;5045517;28;19971;-72
2021/12/11 02:22:53;;;;;;;;;;;5.60;99.90;;;;;;5054123;28;19919;-72
2021/12/11 02:25:20;;;;;;;;;;;5.70;99.90;;;;;;5048006;28;19968;-72
2021/12/11 02:27:49;;;;;;;;;;;5.70;99.90;;;;;;5037233;28;19909;-72
2021/12/11 02:30:18;;;;;;;;;;;5.70;99.90;;;;;;5016304;28;19997;-72
2021/12/11 02:32:48;;;;;;;;;;;5.80;99.90;;;;;;5011686;28;20290;-72
2021/12/11 02:35:37;;;;;;;;;;;5.80;99.90;;;;;;5025272;28;19963;-72
2021/12/11 02:38:09;;;;;;;;;;;5.70;99.90;;;;;;5004974;28;20437;-73
2021/12/11 02:40:43;;;;;;;;;;;5.50;99.90;;;;;;5013858;28;19909;-72
2021/12/11 02:43:18;;;;;;;;;;;5.40;99.90;;;;;;5024708;28;20366;-72
2021/12/11 02:45:57;;;;;;;;;;;5.50;99.90;;;;;;5009603;28;20320;-72
2021/12/11 02:48:26;;;;;;;;;;;5.40;99.90;;;;;;5009564;28;19916;-72
2021/12/11 02:50:59;;;;;;;;;;;5.40;99.90;;;;;;5007996;28;19909;-73
2021/12/11 02:53:31;;;;;;;;;;;5.50;99.90;;;;;;5008473;28;19944;-73
2021/12/11 02:56:02;;;;;;;;;;;5.50;99.90;;;;;;5024154;28;20317;-73
2021/12/11 02:58:30;;;;;;;;;;;5.40;99.90;;;;;;5016452;28;19914;-73
2021/12/11 03:00:58;;;;;;;;;;;5.40;99.90;;;;;;5034408;28;19913;-72
2021/12/11 03:03:31;;;;;;;;;;;5.50;99.90;;;;;;5031119;28;20116;-73
2021/12/11 03:06:04;;;;;;;;;;;5.50;99.90;;;;;;5025333;28;20279;-73
2021/12/11 03:08:30;;;;;;;;;;;5.50;99.90;;;;;;5026526;28;19951;-72
2021/12/11 03:10:57;;;;;;;;;;;5.60;99.90;;;;;;5012086;28;19909;-72
2021/12/11 03:13:22;;;;;;;;;;;5.50;99.90;;;;;;5010468;28;19913;-72
2021/12/11 03:15:49;;;;;;;;;;;5.50;99.90;;;;;;5028489;28;19920;-72
2021/12/11 03:18:14;;;;;;;;;;;5.50;99.90;;;;;;5028587;28;19917;-73
2021/12/11 03:20:41;;;;;;;;;;;5.50;99.90;;;;;;5028197;28;20292;-74
2021/12/11 03:23:09;;;;;;;;;;;5.60;99.90;;;;;;5027957;28;19960;-71
2021/12/11 03:25:36;;;;;;;;;;;5.60;99.90;;;;;;5028310;28;19909;-72
2021/12/11 03:28:03;;;;;;;;;;;5.70;99.90;;;;;;5027911;28;19913;-72
2021/12/11 03:30:30;;;;;;;;;;;5.60;99.90;;;;;;5028397;28;19920;-72
2021/12/11 03:32:57;;;;;;;;;;;5.50;99.90;;;;;;5013863;28;19917;-72
2021/12/11 03:35:23;;;;;;;;;;;5.50;99.90;;;;;;5008198;28;19933;-72
2021/12/11 03:37:49;;;;;;;;;;;5.50;99.90;;;;;;5013631;28;19909;-73
2021/12/11 03:40:15;;;;;;;;;;;5.50;99.90;;;;;;5034637;28;19955;-71
2021/12/11 03:42:43;;;;;;;;;;;5.40;99.90;;;;;;5049881;28;19909;-71
2021/12/11 03:45:12;;;;;;;;;;;5.40;99.90;;;;;;5051200;28;19909;-72
2021/12/11 03:47:40;;;;;;;;;;;5.30;99.90;;;;;;5049345;28;19917;-71
2021/12/11 03:50:07;;;;;;;;;;;5.10;99.90;;;;;;5043590;28;19935;-72
2021/12/11 03:52:33;;;;;;;;;;;5.00;99.90;;;;;;5044493;28;19912;-72
2021/12/11 03:54:59;;;;;;;;;;;5.10;99.90;;;;;;5029014;28;19913;-72
2021/12/11 03:57:27;;;;;;;;;;;5.10;99.90;;;;;;5027923;28;19913;-71
2021/12/11 03:59:54;;;;;;;;;;;5.10;99.90;;;;;;5042653;28;19967;-72
2021/12/11 04:02:22;;;;;;;;;;;5.10;99.90;;;;;;5042911;28;20303;-73
2021/12/11 04:04:50;;;;;;;;;;;5.20;99.90;;;;;;5013668;28;19928;-72
2021/12/11 04:07:18;;;;;;;;;;;5.20;99.90;;;;;;5020375;28;19909;-72
2021/12/11 04:09:43;;;;;;;;;;;5.20;99.90;;;;;;5028287;28;20369;-72
2021/12/11 04:12:09;;;;;;;;;;;5.30;99.90;;;;;;5031541;28;19920;-72
2021/12/11 04:14:38;;;;;;;;;;;5.30;99.90;;;;;;5032125;28;19936;-71
2021/12/11 04:17:06;;;;;;;;;;;5.30;99.90;;;;;;5030414;28;19913;-72
2021/12/11 04:19:31;;;;;;;;;;;5.30;99.90;;;;;;5031893;28;19909;-72
2021/12/11 04:21:57;;;;;;;;;;;5.40;99.90;;;;;;5031825;28;19962;-71
2021/12/11 04:24:24;;;;;;;;;;;5.40;99.90;;;;;;5030894;28;20015;-71
2021/12/11 04:26:50;;;;;;;;;;;5.40;99.90;;;;;;5031197;28;20454;-72
2021/12/11 04:29:16;;;;;;;;;;;5.40;99.90;;;;;;5030776;28;19990;-71
2021/12/11 04:31:43;;;;;;;;;;;5.40;99.90;;;;;;5027156;28;20013;-72
2021/12/11 04:34:12;;;;;;;;;;;5.30;99.90;;;;;;5019990;28;19909;-71
2021/12/11 04:36:41;;;;;;;;;;;5.40;99.90;;;;;;5031144;28;19913;-72
2021/12/11 04:39:08;;;;;;;;;;;5.30;99.90;;;;;;5031214;28;19916;-72
2021/12/11 04:41:41;;;;;;;;;;;5.20;99.90;;;;;;5031027;28;19909;-71
2021/12/11 04:44:08;;;;;;;;;;;5.40;99.90;;;;;;5020743;28;19932;-70
2021/12/11 04:46:34;;;;;;;;;;;5.30;99.90;;;;;;5029112;28;19917;-72
2021/12/11 04:49:11;;;;;;;;;;;5.30;99.90;;;;;;5030650;28;19916;-71
2021/12/11 04:51:46;;;;;;;;;;;5.30;99.90;;;;;;5035837;28;19949;-71
2021/12/11 04:57:11;;;;;;;;;;;5.30;99.90;;;;;;5033112;28;19991;-72
2021/12/11 05:00:06;;;;;;;;;;;5.30;99.90;;;;;;5045021;28;19952;-72
2021/12/11 05:10:14;;;;;;;;;;;5.10;99.90;;;;;;5010143;28;20033;-71
2021/12/11 05:12:41;;;;;;;;;;;5.10;99.90;;;;;;5009679;28;19919;-72
2021/12/11 05:15:12;;;;;;;;;;;4.90;99.90;;;;;;5007462;28;19918;-72
2021/12/11 05:17:38;;;;;;;;;;;4.80;99.90;;;;;;5008214;28;20430;-72
2021/12/11 05:20:05;;;;;;;;;;;4.70;99.90;;;;;;5012413;28;19992;-73
2021/12/11 05:22:31;;;;;;;;;;;4.60;99.90;;;;;;5008054;28;19913;-71
2021/12/11 05:24:56;;;;;;;;;;;4.60;99.90;;;;;;5017075;28;19909;-71
2021/12/11 05:27:22;;;;;;;;;;;4.70;99.90;;;;;;5011862;28;19983;-72
2021/12/11 05:29:48;;;;;;;;;;;4.60;99.90;;;;;;5011143;28;19917;-71
2021/12/11 05:32:15;;;;;;;;;;;4.80;99.90;;;;;;5011008;28;20246;-72
2021/12/11 05:34:41;;;;;;;;;;;4.80;99.90;;;;;;5004806;28;19920;-72
2021/12/11 05:37:07;;;;;;;;;;;4.90;99.90;;;;;;5007892;28;20357;-72
2021/12/11 05:39:32;;;;;;;;;;;4.90;99.90;;;;;;5010885;28;19925;-73
2021/12/11 05:41:58;;;;;;;;;;;4.90;99.90;;;;;;5010261;28;20560;-72
2021/12/11 05:44:24;;;;;;;;;;;4.90;99.90;;;;;;5010302;28;19918;-71
2021/12/11 05:46:50;;;;;;;;;;;5.00;99.90;;;;;;5025231;28;19913;-72
2021/12/11 05:49:16;;;;;;;;;;;5.10;99.90;;;;;;5004726;28;19945;-72
2021/12/11 05:51:42;;;;;;;;;;;5.00;99.90;;;;;;5008139;28;19998;-71
2021/12/11 05:54:10;;;;;;;;;;;4.90;99.90;;;;;;5008517;28;19976;-72
2021/12/11 05:56:38;;;;;;;;;;;5.00;99.90;;;;;;5008049;28;19993;-72
2021/12/11 05:59:05;;;;;;;;;;;5.10;99.90;;;;;;5008203;28;20466;-72
2021/12/11 06:01:38;;;;;;;;;;;5.10;99.90;;;;;;5008049;28;19913;-72
2021/12/11 06:04:07;;;;;;;;;;;5.20;99.90;;;;;;5006289;28;19918;-73
2021/12/11 06:06:33;;;;;;;;;;;5.20;99.90;;;;;;5011949;28;19936;-72
2021/12/11 06:08:58;;;;;;;;;;;5.30;99.90;;;;;;5013138;28;19917;-71
2021/12/11 06:11:24;;;;;;;;;;;5.30;99.90;;;;;;5008751;28;20392;-72
2021/12/11 06:13:49;;;;;;;;;;;5.20;99.90;;;;;;5011628;28;20466;-72
2021/12/11 06:16:15;;;;;;;;;;;5.20;99.90;;;;;;5010083;28;19921;-73
2021/12/11 06:18:41;;;;;;;;;;;5.10;99.90;;;;;;5012243;28;19967;-72
2021/12/11 06:21:07;;;;;;;;;;;5.20;99.90;;;;;;5010375;28;19970;-72
2021/12/11 06:23:32;;;;;;;;;;;5.20;99.90;;;;;;5010805;28;19917;-72
2021/12/11 06:25:58;;;;;;;;;;;5.20;99.90;;;;;;5007595;28;19913;-72
2021/12/11 06:28:25;;;;;;;;;;;5.40;99.90;;;;;;5008414;28;20403;-73
2021/12/11 06:30:52;;;;;;;;;;;5.50;99.90;;;;;;5007726;28;19948;-71
2021/12/11 06:33:17;;;;;;;;;;;5.60;99.90;;;;;;5008430;28;19913;-72
2021/12/11 06:35:45;;;;;;;;;;;5.50;99.90;;;;;;5006565;28;19925;-73
2021/12/11 06:38:14;;;;;;;;;;;5.50;99.90;;;;;;5009641;28;19913;-73
2021/12/11 06:40:40;;;;;;;;;;;5.40;99.90;;;;;;5009921;28;19992;-73
2021/12/11 06:43:05;;;;;;;;;;;5.40;99.90;;;;;;5009338;28;20029;-69
2021/12/11 06:45:31;;;;;;;;;;;5.60;99.90;;;;;;5020522;28;19916;-73
2021/12/11 06:47:57;;;;;;;;;;;5.60;99.90;;;;;;5030275;28;19909;-72
2021/12/11 06:50:24;;;;;;;;;;;5.60;99.90;;;;;;5029135;28;20421;-73
2021/12/11 06:52:50;;;;;;;;;;;5.70;99.90;;;;;;5029826;28;19924;-73
2021/12/11 06:55:17;;;;;;;;;;;5.70;99.90;;;;;;5040402;28;19909;-72
2021/12/11 06:57:43;;;;;;;;;;;5.70;99.90;;;;;;5048083;28;19974;-71
2021/12/11 07:00:10;;;;;;;;;;;5.70;99.90;;;;;;5048550;28;19952;-70
2021/12/11 07:02:35;;;;;;;;;;;5.80;99.90;;;;;;5039583;28;20361;-72
2021/12/11 07:05:01;;;;;;;;;;;5.90;99.90;;;;;;5032013;28;19923;-72
2021/12/11 07:07:32;;;;;;;;;;;5.80;99.90;;;;;;5029824;28;20015;-70
2021/12/11 07:09:58;;;;;;;;;;;5.80;99.90;;;;;;5029525;28;19909;-70
2021/12/11 07:12:24;;;;;;;;;;;5.90;99.90;;;;;;5012219;28;19918;-70
2021/12/11 07:14:50;;;;;;;;;;;5.90;99.90;;;;;;5014357;28;19909;-70
2021/12/11 07:17:16;;;;;;;;;;;6.00;99.90;;;;;;5005501;28;19913;-71
2021/12/11 07:19:41;;;;;;;;;;;6.10;99.90;;;;;;5007352;28;19925;-69
2021/12/11 07:22:07;;;;;;;;;;;6.10;99.90;;;;;;5008922;28;19910;-72
2021/12/11 07:24:35;;;;;;;;;;;6.10;99.90;;;;;;5008522;28;19910;-70
2021/12/11 07:27:04;;;;;;;;;;;6.20;99.90;;;;;;5008689;28;19909;-69
2021/12/11 07:29:30;;;;;;;;;;;6.20;99.90;;;;;;5010554;28;20011;-69
2021/12/11 07:31:56;;;;;;;;;;;6.20;99.90;;;;;;5008280;28;20373;-70
2021/12/11 07:34:22;;;;;;;;;;;6.20;99.90;;;;;;5008682;28;20025;-70
2021/12/11 07:36:50;;;;;;;;;;;6.20;99.90;;;;;;5008641;28;19925;-71
2021/12/11 07:39:16;;;;;;;;;;;6.20;99.90;;;;;;5005638;28;20017;-67
2021/12/11 07:41:42;;;;;;;;;;;6.20;99.90;;;;;;5008475;28;19957;-71
2021/12/11 07:44:07;;;;;;;;;;;6.30;99.90;;;;;;5008341;28;19944;-70
2021/12/11 07:46:34;;;;;;;;;;;6.30;99.90;;;;;;5011882;28;19913;-69
2021/12/11 07:48:59;;;;;;;;;;;6.30;99.90;;;;;;5012594;28;20373;-71
2021/12/11 07:51:26;;;;;;;;;;;6.30;99.90;;;;;;5012295;28;19916;-73
2021/12/11 07:53:52;;;;;;;;;;;6.30;99.90;;;;;;5012207;28;20373;-71
2021/12/11 07:56:18;;;;;;;;;;;6.30;99.90;;;;;;5024029;28;19920;-70
2021/12/11 07:58:45;;;;;;;;;;;6.30;99.90;;;;;;5033267;28;19920;-69
2021/12/11 08:01:11;;;;;;;;;;;6.30;99.90;;;;;;5047247;28;19949;-69
2021/12/11 08:03:37;;;;;;;;;;;6.30;99.90;;;;;;5026532;28;20289;-70
2021/12/11 08:06:03;;;;;;;;;;;6.40;99.90;;;;;;5017477;28;19924;-71
2021/12/11 08:08:28;;;;;;;;;;;6.40;99.90;;;;;;5019782;28;19917;-70
2021/12/11 08:10:56;;;;;;;;;;;6.40;99.90;;;;;;5025075;28;20328;-71
2021/12/11 08:13:22;;;;;;;;;;;6.40;99.90;;;;;;5019860;28;19921;-71
2021/12/11 08:15:49;;;;;;;;;;;6.40;99.90;;;;;;5029815;28;20553;-71
2021/12/11 08:18:17;;;;;;;;;;;6.40;99.90;;;;;;5010556;28;19913;-71
2021/12/11 08:20:43;;;;;;;;;;;6.40;99.90;;;;;;5010922;28;20374;-70
2021/12/11 08:23:10;;;;;;;;;;;6.40;99.90;;;;;;5011671;28;19914;-70
2021/12/11 08:25:36;;;;;;;;;;;6.50;99.90;;;;;;5012740;28;19918;-71
2021/12/11 08:28:03;;;;;;;;;;;6.50;99.90;;;;;;5010760;28;19941;-70
2021/12/11 08:30:30;;;;;;;;;;;6.50;99.90;;;;;;5013128;28;19953;-70
2021/12/11 08:32:55;;;;;;;;;;;6.50;99.90;;;;;;5009001;28;19965;-72
2021/12/11 08:35:21;;;;;;;;;;;6.50;99.90;;;;;;5013022;28;20678;-71
2021/12/11 08:37:47;;;;;;;;;;;6.50;99.90;;;;;;5012206;28;19909;-71
2021/12/11 08:40:14;;;;;;;;;;;6.50;99.90;;;;;;5011285;28;19914;-72
2021/12/11 08:42:40;;;;;;;;;;;6.50;99.90;;;;;;5011243;28;19961;-71
2021/12/11 08:45:09;;;;;;;;;;;6.50;99.90;;;;;;5011461;28;19964;-71
2021/12/11 08:47:40;;;;;;;;;;;6.60;99.90;;;;;;5011708;28;20012;-70
2021/12/11 08:50:07;;;;;;;;;;;6.60;99.90;;;;;;5028220;28;20008;-72
2021/12/11 08:52:35;;;;;;;;;;;6.60;99.90;;;;;;5012685;28;19957;-70
2021/12/11 08:55:01;;;;;;;;;;;6.60;99.90;;;;;;5012611;28;19921;-70
2021/12/11 08:57:29;;;;;;;;;;;6.60;99.90;;;;;;5009658;28;19928;-71
2021/12/11 08:59:58;;;;;;;;;;;6.60;99.90;;;;;;5005774;28;19963;-72
2021/12/11 09:02:36;;;;;;;;;;;6.60;99.90;;;;;;5009894;28;20153;-70
2021/12/11 09:05:05;;;;;;;;;;;6.60;99.90;;;;;;5026639;28;19924;-70
2021/12/11 09:07:34;;;;;;;;;;;6.70;99.90;;;;;;5026480;28;19963;-71
2021/12/11 09:10:11;;;;;;;;;;;6.80;99.90;;;;;;5030417;28;20379;-70
2021/12/11 09:12:40;;;;;;;;;;;6.90;99.90;;;;;;5011256;28;20230;-72
2021/12/11 09:15:08;;;;;;;;;;;6.90;99.90;;;;;;5044720;28;19916;-72
2021/12/11 09:17:36;;;;;;;;;;;6.90;99.90;;;;;;5031543;28;20227;-71
2021/12/11 09:20:14;;;;;;;;;;;6.80;99.90;;;;;;5014869;28;19913;-71
2021/12/11 09:22:45;;;;;;;;;;;6.80;99.90;;;;;;5015335;28;19913;-71
2021/12/11 09:25:20;;;;;;;;;;;6.80;99.90;;;;;;5010641;28;19937;-70
2021/12/11 09:27:54;;;;;;;;;;;6.80;99.90;;;;;;5010751;28;19910;-70
2021/12/11 09:30:28;;;;;;;;;;;6.80;99.90;;;;;;5010123;28;19945;-69
2021/12/11 09:32:58;;;;;;;;;;;6.80;99.90;;;;;;5025388;28;19921;-72
2021/12/11 09:35:32;;;;;;;;;;;6.80;99.90;;;;;;5009507;28;19949;-69
2021/12/11 09:38:05;;;;;;;;;;;6.70;99.90;;;;;;5010970;28;19956;-71
2021/12/11 09:40:36;;;;;;;;;;;6.80;99.90;;;;;;5005758;28;19943;-71
2021/12/11 09:43:02;;;;;;;;;;;6.80;99.90;;;;;;5008473;28;20008;-70
2021/12/11 09:45:30;;;;;;;;;;;6.80;99.90;;;;;;5007830;28;20429;-71
2021/12/11 09:47:58;;;;;;;;;;;6.80;99.90;;;;;;5008572;28;19940;-70
2021/12/11 09:50:26;;;;;;;;;;;6.90;99.90;;;;;;5003167;28;19913;-71
2021/12/11 09:52:52;;;;;;;;;;;7.00;99.90;;;;;;5007703;28;19921;-70
2021/12/11 09:55:23;;;;;;;;;;;7.00;99.90;;;;;;5005460;28;19917;-74
2021/12/11 09:57:51;;;;;;;;;;;7.00;99.90;;;;;;5015678;28;19975;-70
2021/12/11 10:00:19;;;;;;;;;;;7.20;99.90;;;;;;5009442;28;19917;-70
2021/12/11 10:02:45;;;;;;;;;;;7.50;99.90;;;;;;5007535;28;20363;-70
2021/12/11 10:05:30;;;;;;;;;;;7.60;99.90;;;;;;5009330;28;20009;-72
2021/12/11 10:08:26;;;;;;;;;;;7.60;99.90;;;;;;5013667;28;19921;-71
2021/12/11 10:10:50;;;;;;;;;;;7.60;99.90;;;;;;5014023;28;19921;-71
2021/12/11 10:13:15;;;;;;;;;;;7.60;99.90;;;;;;5013089;28;19913;-71
2021/12/11 10:15:41;;;;;;;;;;;7.60;99.90;;;;;;5010510;28;20274;-70
2021/12/11 10:18:12;;;;;;;;;;;7.60;99.90;;;;;;5010077;28;19920;-72
2021/12/11 10:20:56;;;;;;;;;;;7.50;99.90;;;;;;5010117;28;20008;-71
2021/12/11 10:23:30;;;;;;;;;;;7.50;99.90;;;;;;5009240;28;20421;-70
2021/12/11 10:25:56;;;;;;;;;;;7.60;99.90;;;;;;5008499;28;19980;-70
2021/12/11 10:28:27;;;;;;;;;;;7.50;99.90;;;;;;5008864;28;20385;-71
2021/12/11 10:31:03;;;;;;;;;;;7.50;99.90;;;;;;5025606;28;19967;-71
2021/12/11 10:33:31;;;;;;;;;;;7.40;99.90;;;;;;5010579;28;19917;-69
2021/12/11 10:35:58;;;;;;;;;;;7.30;99.90;;;;;;5009825;28;19913;-71
2021/12/11 10:38:24;;;;;;;;;;;7.30;99.90;;;;;;5010201;28;19913;-70
2021/12/11 10:40:51;;;;;;;;;;;7.50;99.90;;;;;;5010007;28;20297;-72
2021/12/11 10:43:19;;;;;;;;;;;7.40;99.90;;;;;;5008556;28;20030;-70
2021/12/11 10:45:45;;;;;;;;;;;7.40;99.90;;;;;;5009060;28;20389;-70
2021/12/11 10:48:14;;;;;;;;;;;7.50;99.90;;;;;;5010411;28;19917;-71
2021/12/11 10:50:48;;;;;;;;;;;7.40;99.90;;;;;;5009976;28;19920;-69
2021/12/11 10:53:16;;;;;;;;;;;7.40;99.90;;;;;;5009016;28;19918;-69
2021/12/11 10:55:42;;;;;;;;;;;7.50;99.90;;;;;;5009352;28;19921;-69
2021/12/11 10:58:13;;;;;;;;;;;7.60;99.90;;;;;;5007634;28;19928;-70
2021/12/11 11:00:41;;;;;;;;;;;7.70;99.90;;;;;;5008962;28;19925;-70
2021/12/11 11:03:07;;;;;;;;;;;7.80;99.90;;;;;;5016367;28;19916;-71
2021/12/11 11:05:34;;;;;;;;;;;7.70;99.90;;;;;;5011152;28;20416;-70
2021/12/11 11:07:59;;;;;;;;;;;7.70;99.90;;;;;;5026536;28;20373;-72
2021/12/11 11:10:27;;;;;;;;;;;7.80;99.90;;;;;;5026306;28;20203;-70
2021/12/11 11:12:53;;;;;;;;;;;7.70;99.90;;;;;;5007974;28;20378;-71
2021/12/11 11:15:21;;;;;;;;;;;7.90;99.90;;;;;;5012053;28;19932;-70
2021/12/11 11:17:47;;;;;;;;;;;7.80;99.90;;;;;;5020238;28;19914;-71
2021/12/11 11:20:13;;;;;;;;;;;7.90;99.90;;;;;;5008833;28;19948;-69
2021/12/11 11:22:41;;;;;;;;;;;8.00;99.90;;;;;;5009650;28;20433;-70
2021/12/11 11:25:06;;;;;;;;;;;7.90;99.90;;;;;;5006695;28;19921;-68
2021/12/11 11:27:32;;;;;;;;;;;7.80;99.90;;;;;;5027482;28;19922;-69
2021/12/11 11:29:57;;;;;;;;;;;7.70;99.90;;;;;;5027937;28;19913;-71
2021/12/11 11:32:31;;;;;;;;;;;7.80;99.90;;;;;;5022726;28;19925;-71
2021/12/11 11:35:07;;;;;;;;;;;7.80;99.90;;;;;;5018351;28;20031;-69
2021/12/11 11:37:35;;;;;;;;;;;7.90;99.90;;;;;;5007185;28;20024;-71
2021/12/11 11:40:05;;;;;;;;;;;8.00;99.90;;;;;;5009600;28;20208;-69
2021/12/11 11:42:30;;;;;;;;;;;7.90;99.90;;;;;;5008852;28;19913;-71
2021/12/11 11:44:56;;;;;;;;;;;7.90;99.90;;;;;;5008847;28;20358;-70
2021/12/11 11:47:22;;;;;;;;;;;8.00;99.90;;;;;;5008835;28;19917;-69
2021/12/11 11:49:48;;;;;;;;;;;8.00;99.90;;;;;;5005508;28;19914;-70
2021/12/11 11:52:16;;;;;;;;;;;8.00;99.90;;;;;;5006549;28;20023;-70
2021/12/11 11:54:43;;;;;;;;;;;8.20;99.90;;;;;;5006964;28;19917;-71
2021/12/11 11:57:10;;;;;;;;;;;8.20;99.90;;;;;;5008583;28;19933;-70
2021/12/11 11:59:36;;;;;;;;;;;8.20;99.90;;;;;;5007781;28;20000;-70
2021/12/11 12:02:05;;;;;;;;;;;8.10;99.90;;;;;;5006976;28;19920;-71
2021/12/11 12:04:32;;;;;;;;;;;8.00;99.90;;;;;;5007499;28;19967;-71
2021/12/11 12:07:01;;;;;;;;;;;8.00;99.90;;;;;;5007997;28;19921;-71
2021/12/11 12:09:28;;;;;;;;;;;7.90;99.90;;;;;;5007616;28;19917;-71
2021/12/11 12:11:54;;;;;;;;;;;7.90;99.90;;;;;;5008530;28;20421;-71
2021/12/11 12:14:22;;;;;;;;;;;7.90;99.90;;;;;;5009770;28;20449;-70
2021/12/11 12:16:51;;;;;;;;;;;7.90;99.90;;;;;;5007439;28;21355;-71
2021/12/11 12:19:18;;;;;;;;;;;8.00;99.90;;;;;;5008045;28;20111;-72
2021/12/11 12:21:45;;;;;;;;;;;8.00;99.90;;;;;;5008713;28;20287;-72
2021/12/11 12:24:11;;;;;;;;;;;8.30;99.90;;;;;;5009517;28;19916;-72
2021/12/11 12:26:37;;;;;;;;;;;8.20;99.90;;;;;;5008891;28;20011;-71
2021/12/11 12:29:04;;;;;;;;;;;8.10;99.90;;;;;;5008411;28;19920;-72
2021/12/11 12:31:32;;;;;;;;;;;8.30;99.90;;;;;;5009680;28;20016;-70
2021/12/11 12:33:59;;;;;;;;;;;8.40;99.90;;;;;;5016751;28;19924;-70
2021/12/11 12:36:25;;;;;;;;;;;8.50;99.90;;;;;;5019271;28;19914;-71
2021/12/11 12:38:51;;;;;;;;;;;8.70;99.90;;;;;;5005048;28;20344;-69
2021/12/11 12:41:20;;;;;;;;;;;8.70;99.90;;;;;;5016265;28;20345;-69
2021/12/11 12:44:16;;;;;;;;;;;8.70;99.90;;;;;;5025484;28;19929;-69
2021/12/11 12:46:42;;;;;;;;;;;8.70;99.90;;;;;;5028070;28;19910;-69
2021/12/11 12:49:07;;;;;;;;;;;8.90;99.90;;;;;;5029600;28;19917;-69
2021/12/11 12:51:33;;;;;;;;;;;9.10;99.90;;;;;;5021140;28;19910;-69
2021/12/11 12:53:59;;;;;;;;;;;8.80;99.90;;;;;;5026622;28;20126;-69
2021/12/11 12:56:37;;;;;;;;;;;8.80;99.90;;;;;;5032278;28;19941;-70
2021/12/11 12:59:15;;;;;;;;;;;8.70;99.90;;;;;;5032644;28;20008;-69
2021/12/11 13:01:47;;;;;;;;;;;8.60;99.90;;;;;;5031249;28;19943;-69
2021/12/11 13:04:14;;;;;;;;;;;8.60;99.90;;;;;;5030139;28;19967;-67
2021/12/11 13:06:41;;;;;;;;;;;8.70;99.90;;;;;;5023753;28;19922;-69
2021/12/11 13:09:22;;;;;;;;;;;8.80;99.90;;;;;;5030620;28;19922;-69
2021/12/11 13:11:51;;;;;;;;;;;8.70;99.90;;;;;;5030685;28;20424;-69
2021/12/11 13:14:17;;;;;;;;;;;8.40;99.90;;;;;;5030620;28;19996;-70
2021/12/11 13:16:43;;;;;;;;;;;8.30;99.90;;;;;;5030540;28;20363;-69
2021/12/11 13:19:21;;;;;;;;;;;8.30;99.90;;;;;;5027356;28;19925;-69
2021/12/11 13:21:55;;;;;;;;;;;8.20;99.90;;;;;;5011108;28;20380;-69
2021/12/11 13:24:21;;;;;;;;;;;8.20;99.90;;;;;;5010481;28;20484;-70
2021/12/11 13:26:48;;;;;;;;;;;8.10;99.90;;;;;;5011800;28;19949;-70
2021/12/11 13:29:15;;;;;;;;;;;8.00;99.90;;;;;;5013319;28;20325;-69
2021/12/11 13:31:41;;;;;;;;;;;7.90;99.90;;;;;;5012656;28;19914;-69
2021/12/11 13:34:06;;;;;;;;;;;7.80;99.90;;;;;;5010237;28;20287;-69
2021/12/11 13:36:32;;;;;;;;;;;7.70;99.90;;;;;;5010599;28;19913;-68
2021/12/11 13:38:58;;;;;;;;;;;7.60;99.90;;;;;;5011587;28;19932;-69
2021/12/11 13:41:27;;;;;;;;;;;7.60;99.90;;;;;;5015888;28;19939;-70
2021/12/11 13:43:52;;;;;;;;;;;7.60;99.90;;;;;;5014426;28;19913;-68
2021/12/11 13:46:18;;;;;;;;;;;7.70;99.90;;;;;;5014582;28;19909;-69
2021/12/11 13:48:44;;;;;;;;;;;7.80;99.90;;;;;;5014548;28;19910;-69
2021/12/11 13:51:12;;;;;;;;;;;7.80;99.90;;;;;;5014460;28;19924;-68
2021/12/11 13:53:38;;;;;;;;;;;7.90;99.90;;;;;;5013089;28;19913;-69
2021/12/11 13:56:05;;;;;;;;;;;7.90;99.90;;;;;;5012462;28;19967;-70
2021/12/11 13:58:31;;;;;;;;;;;7.90;99.90;;;;;;5011822;28;20027;-69
2021/12/11 14:01:07;;;;;;;;;;;7.90;99.90;;;;;;5011463;28;19957;-70
2021/12/11 14:03:33;;;;;;;;;;;7.80;99.90;;;;;;5013014;28;20138;-69
2021/12/11 14:06:02;;;;;;;;;;;7.80;99.90;;;;;;5014596;28;19913;-69
2021/12/11 14:08:28;;;;;;;;;;;7.80;99.90;;;;;;5033217;28;19990;-68
2021/12/11 14:10:54;;;;;;;;;;;7.70;99.90;;;;;;5048313;28;20365;-68
2021/12/11 14:13:20;;;;;;;;;;;7.50;99.90;;;;;;5030376;28;19928;-69
2021/12/11 14:15:47;;;;;;;;;;;7.40;99.90;;;;;;5033856;28;19909;-67
2021/12/11 14:18:13;;;;;;;;;;;7.40;99.90;;;;;;5018423;28;19913;-69
2021/12/11 14:20:39;;;;;;;;;;;7.40;99.90;;;;;;5027023;28;20759;-70
2021/12/11 14:23:07;;;;;;;;;;;7.40;99.90;;;;;;5012411;28;19934;-69
2021/12/11 14:25:33;;;;;;;;;;;7.40;99.90;;;;;;5011996;28;20305;-68
2021/12/11 14:28:06;;;;;;;;;;;7.40;99.90;;;;;;5012203;28;20631;-70
2021/12/11 14:30:32;;;;;;;;;;;7.50;99.90;;;;;;5020644;28;19921;-69
2021/12/11 14:32:59;;;;;;;;;;;7.50;99.90;;;;;;5016186;28;19920;-70
2021/12/11 14:35:26;;;;;;;;;;;7.40;99.90;;;;;;5010199;28;20201;-69
2021/12/11 14:37:52;;;;;;;;;;;7.40;99.90;;;;;;5009761;28;19909;-69
2021/12/11 14:40:19;;;;;;;;;;;7.40;99.90;;;;;;5009479;28;19910;-71
2021/12/11 14:42:45;;;;;;;;;;;7.30;99.90;;;;;;5008966;28;20322;-69
2021/12/11 14:45:13;;;;;;;;;;;7.20;99.90;;;;;;5009749;28;20214;-69
2021/12/11 14:47:38;;;;;;;;;;;7.30;99.90;;;;;;5009719;28;19910;-69
2021/12/11 14:50:05;;;;;;;;;;;7.40;99.90;;;;;;5009421;28;20390;-69
2021/12/11 14:52:31;;;;;;;;;;;7.40;99.90;;;;;;5008799;28;19921;-69